Time;durP1;ratioP1;P1;durP2;ratioP2;P2;SDS_P1;SDS_P2;PMS_P1;PMS_P2;Temp;Humidity;BMP_temperature;BMP_pressure;BME280_temperature;BME280_humidity;BME280_pressure;Samples;Min_cycle;Max_cycle;Signal;HPM_P1;HPM_P2
2023/01/25 00:00:40;;;;;;;10.25;8.00;;;;;;;;;;4973452;28;20039;-61
2023/01/25 00:03:06;;;;;;;11.68;7.68;;;;;;;;;;4978879;28;20030;-61
2023/01/25 00:05:31;;;;;;;8.57;7.22;;;;;;;;;;4992515;28;20039;-60
2023/01/25 00:07:57;;;;;;;9.15;7.32;;;;;;;;;;4988814;28;20463;-61
2023/01/25 00:10:23;;;;;;;9.50;7.30;;;;;;;;;;4973877;28;20401;-61
2023/01/25 00:12:48;;;;;;;9.93;7.95;;;;;;;;;;4973477;28;20035;-60
2023/01/25 00:15:14;;;;;;;9.88;7.70;;;;;;;;;;4986064;28;20129;-59
2023/01/25 00:17:39;;;;;;;10.63;7.90;;;;;;;;;;4992944;28;20053;-60
2023/01/25 00:20:06;;;;;;;10.68;7.18;;;;;;;;;;4990326;28;20027;-60
2023/01/25 00:22:32;;;;;;;8.93;7.35;;;;;;;;;;4983360;28;20029;-60
2023/01/25 00:24:57;;;;;;;9.73;7.57;;;;;;;;;;4982553;28;20022;-60
2023/01/25 00:27:23;;;;;;;10.95;7.57;;;;;;;;;;4982072;28;20479;-59
2023/01/25 00:32:13;;;;;;;10.70;7.83;;;;;;;;;;4982029;28;20038;-60
2023/01/25 00:34:50;;;;;;;9.88;7.40;;;;;;;;;;4982231;28;20764;-60
2023/01/25 00:37:45;;;;;;;9.07;7.40;;;;;;;;;;4965109;28;20018;-59
2023/01/25 00:40:12;;;;;;;9.93;7.20;;;;;;;;;;4979679;28;20261;-60
2023/01/25 00:42:38;;;;;;;10.05;7.50;;;;;;;;;;4975487;28;20105;-59
2023/01/25 00:45:04;;;;;;;9.25;7.30;;;;;;;;;;4973271;28;20526;-60
2023/01/25 00:47:30;;;;;;;10.02;7.93;;;;;;;;;;4973472;28;20057;-60
2023/01/25 00:49:55;;;;;;;10.07;7.90;;;;;;;;;;4973146;28;20471;-60
2023/01/25 00:52:21;;;;;;;9.48;7.63;;;;;;;;;;4973237;28;20087;-60
2023/01/25 00:54:47;;;;;;;10.77;7.57;;;;;;;;;;4971824;28;20038;-60
2023/01/25 00:57:13;;;;;;;8.32;6.78;;;;;;;;;;4973159;28;20027;-60
2023/01/25 00:59:43;;;;;;;9.20;7.43;;;;;;;;;;4974753;28;20026;-60
2023/01/25 01:02:09;;;;;;;7.93;7.07;;;;;;;;;;4976305;28;20042;-59
2023/01/25 01:04:34;;;;;;;10.27;7.53;;;;;;;;;;4976612;28;20039;-59
2023/01/25 01:07:00;;;;;;;9.13;7.32;;;;;;;;;;4976499;28;20027;-60
2023/01/25 01:09:25;;;;;;;9.98;7.30;;;;;;;;;;4976335;28;20035;-60
2023/01/25 01:11:51;;;;;;;8.57;6.47;;;;;;;;;;4959122;28;20039;-60
2023/01/25 01:14:17;;;;;;;10.50;7.10;;;;;;;;;;4976305;28;20502;-60
2023/01/25 01:16:43;;;;;;;11.13;7.32;;;;;;;;;;4976218;28;20071;-60
2023/01/25 01:19:08;;;;;;;11.13;7.65;;;;;;;;;;4976214;28;20434;-60
2023/01/25 01:21:34;;;;;;;9.43;7.32;;;;;;;;;;4976331;28;20050;-60
2023/01/25 01:23:59;;;;;;;9.45;7.25;;;;;;;;;;4976210;28;20475;-60
2023/01/25 01:26:25;;;;;;;9.13;6.95;;;;;;;;;;4976446;28;20470;-60
2023/01/25 01:28:50;;;;;;;8.30;7.03;;;;;;;;;;4976085;28;20078;-60
2023/01/25 01:31:21;;;;;;;9.23;7.22;;;;;;;;;;4976073;28;20037;-60
2023/01/25 01:33:51;;;;;;;7.85;6.55;;;;;;;;;;4976059;28;20411;-61
2023/01/25 01:36:18;;;;;;;8.63;7.30;;;;;;;;;;4976301;28;20027;-61
2023/01/25 01:38:44;;;;;;;9.27;6.93;;;;;;;;;;4958482;28;20118;-60
2023/01/25 01:41:11;;;;;;;9.35;7.18;;;;;;;;;;4975884;28;20106;-60
2023/01/25 01:43:37;;;;;;;9.90;7.03;;;;;;;;;;4975784;28;20027;-61
2023/01/25 01:46:08;;;;;;;9.95;7.22;;;;;;;;;;4975733;28;20038;-62
2023/01/25 01:48:39;;;;;;;8.18;6.65;;;;;;;;;;4975707;28;20109;-60
2023/01/25 01:51:18;;;;;;;8.63;7.13;;;;;;;;;;4958403;28;20030;-60
2023/01/25 01:53:47;;;;;;;8.73;6.68;;;;;;;;;;4975932;28;20031;-60
2023/01/25 01:56:19;;;;;;;9.88;6.95;;;;;;;;;;4975694;28;20069;-61
2023/01/25 01:58:47;;;;;;;9.25;7.05;;;;;;;;;;4975757;28;20033;-60
2023/01/25 02:01:12;;;;;;;9.35;6.68;;;;;;;;;;4975527;28;20062;-59
2023/01/25 02:03:39;;;;;;;8.88;6.65;;;;;;;;;;4975691;28;20104;-60
2023/01/25 02:07:06;;;;;;;9.05;7.03;;;;;;;;;;4975501;28;20386;-59
2023/01/25 02:09:34;;;;;;;9.23;6.82;;;;;;;;;;4952855;28;20050;-59
2023/01/25 02:12:01;;;;;;;8.10;6.70;;;;;;;;;;4975286;28;20030;-60
2023/01/25 02:14:28;;;;;;;8.93;6.70;;;;;;;;;;4975646;28;20026;-59
2023/01/25 02:16:54;;;;;;;9.07;6.57;;;;;;;;;;4975066;28;20450;-60
2023/01/25 02:19:32;;;;;;;8.90;7.07;;;;;;;;;;4975148;28;20026;-60
2023/01/25 02:21:58;;;;;;;8.65;6.63;;;;;;;;;;4975239;28;20030;-59
2023/01/25 02:24:31;;;;;;;8.57;6.70;;;;;;;;;;4975094;28;20027;-59
2023/01/25 02:26:56;;;;;;;6.90;6.03;;;;;;;;;;4975108;28;20110;-59
2023/01/25 02:29:24;;;;;;;8.15;6.55;;;;;;;;;;4974929;28;20146;-59
2023/01/25 02:31:58;;;;;;;8.07;6.55;;;;;;;;;;4975179;28;20034;-60
2023/01/25 02:34:23;;;;;;;8.05;6.75;;;;;;;;;;4974963;28;20112;-59
2023/01/25 02:36:49;;;;;;;8.82;7.30;;;;;;;;;;4975143;28;20067;-59
2023/01/25 02:39:17;;;;;;;8.10;6.68;;;;;;;;;;4974812;28;20023;-60
2023/01/25 02:41:46;;;;;;;8.65;6.70;;;;;;;;;;4974772;28;20034;-59
2023/01/25 02:44:18;;;;;;;7.75;6.07;;;;;;;;;;4974760;28;20050;-60
2023/01/25 02:46:44;;;;;;;9.05;6.78;;;;;;;;;;4974663;28;20027;-60
2023/01/25 02:49:11;;;;;;;9.35;6.88;;;;;;;;;;4974669;28;20042;-59
2023/01/25 02:51:39;;;;;;;7.75;6.57;;;;;;;;;;4974575;28;20109;-60
2023/01/25 02:54:07;;;;;;;8.35;6.10;;;;;;;;;;4974823;28;20380;-60
2023/01/25 02:56:33;;;;;;;9.20;6.57;;;;;;;;;;4974723;28;20058;-60
2023/01/25 02:59:04;;;;;;;7.63;6.10;;;;;;;;;;4957047;28;20554;-60
2023/01/25 03:01:30;;;;;;;;;;;;;;;;;;4975129;28;20376;-60
2023/01/25 03:03:56;;;;;;;7.38;5.93;;;;;;;;;;4974427;28;20397;-59
2023/01/25 03:06:21;;;;;;;7.88;6.35;;;;;;;;;;4956863;28;20043;-59
2023/01/25 03:08:47;;;;;;;7.65;6.30;;;;;;;;;;4974581;28;20023;-60
2023/01/25 03:11:12;;;;;;;7.72;6.07;;;;;;;;;;4974209;28;20026;-60
2023/01/25 03:13:38;;;;;;;7.75;6.18;;;;;;;;;;4974476;28;20428;-60
2023/01/25 03:16:06;;;;;;;8.10;6.22;;;;;;;;;;4973858;28;20082;-59
2023/01/25 03:18:33;;;;;;;9.10;6.20;;;;;;;;;;4974119;28;20039;-59
2023/01/25 03:21:11;;;;;;;9.07;5.82;;;;;;;;;;4973654;28;20073;-60
2023/01/25 03:23:37;;;;;;;7.75;6.25;;;;;;;;;;4973959;28;20053;-59
2023/01/25 03:26:17;;;;;;;8.73;6.55;;;;;;;;;;4974036;28;20371;-59
2023/01/25 03:28:43;;;;;;;7.13;5.88;;;;;;;;;;4974290;28;20484;-60
2023/01/25 03:31:11;;;;;;;9.27;6.70;;;;;;;;;;4956677;28;20050;-59
2023/01/25 03:33:37;;;;;;;7.47;6.10;;;;;;;;;;4973952;28;20023;-59
2023/01/25 03:36:04;;;;;;;7.47;6.25;;;;;;;;;;4973923;28;20533;-60
2023/01/25 03:38:30;;;;;;;8.50;6.50;;;;;;;;;;4973863;28;20391;-60
2023/01/25 03:40:56;;;;;;;8.00;6.25;;;;;;;;;;4974048;28;20022;-59
2023/01/25 03:43:21;;;;;;;8.32;6.07;;;;;;;;;;4973749;28;20475;-59
2023/01/25 03:45:55;;;;;;;7.95;6.47;;;;;;;;;;4973790;28;20023;-59
2023/01/25 03:48:22;;;;;;;7.53;6.22;;;;;;;;;;4973727;28;20027;-60
2023/01/25 03:50:52;;;;;;;8.00;6.50;;;;;;;;;;4973770;28;20458;-60
2023/01/25 03:53:31;;;;;;;7.43;6.05;;;;;;;;;;4973728;28;20412;-60
2023/01/25 03:56:03;;;;;;;8.02;5.90;;;;;;;;;;4973691;28;20106;-60
2023/01/25 03:58:30;;;;;;;7.47;5.72;;;;;;;;;;4973689;28;20027;-60
2023/01/25 04:00:57;;;;;;;8.98;6.15;;;;;;;;;;4973484;28;20030;-60
2023/01/25 04:03:24;;;;;;;8.40;6.05;;;;;;;;;;4973558;28;20038;-59
2023/01/25 04:05:51;;;;;;;7.18;6.20;;;;;;;;;;4973598;28;20048;-60
2023/01/25 04:08:17;;;;;;;7.72;5.88;;;;;;;;;;4973510;28;20042;-60
2023/01/25 04:10:42;;;;;;;8.70;5.82;;;;;;;;;;4973816;28;20101;-60
2023/01/25 04:13:08;;;;;;;7.35;5.93;;;;;;;;;;4973427;28;20467;-59
2023/01/25 04:15:34;;;;;;;7.93;6.25;;;;;;;;;;4973373;28;20047;-60
2023/01/25 04:18:00;;;;;;;5.95;5.35;;;;;;;;;;4973775;28;20030;-59
2023/01/25 04:20:25;;;;;;;6.72;5.30;;;;;;;;;;4973694;28;20030;-61
2023/01/25 04:22:51;;;;;;;7.82;6.03;;;;;;;;;;4973452;28;20031;-60
2023/01/25 04:25:16;;;;;;;7.85;5.80;;;;;;;;;;4973396;28;20035;-60
2023/01/25 04:27:42;;;;;;;6.82;5.50;;;;;;;;;;4973402;28;20433;-60
2023/01/25 04:30:08;;;;;;;5.85;5.25;;;;;;;;;;4973410;28;20086;-60
2023/01/25 04:32:35;;;;;;;7.88;6.10;;;;;;;;;;4973521;28;20050;-60
2023/01/25 04:35:00;;;;;;;7.25;5.47;;;;;;;;;;4976435;28;20080;-60
2023/01/25 04:37:26;;;;;;;7.10;5.45;;;;;;;;;;4977012;28;20102;-60
2023/01/25 04:39:51;;;;;;;7.57;6.07;;;;;;;;;;4976874;28;20039;-60
2023/01/25 04:42:17;;;;;;;8.07;6.03;;;;;;;;;;4976846;28;20033;-60
2023/01/25 04:44:42;;;;;;;7.68;6.18;;;;;;;;;;4976904;28;20031;-60
2023/01/25 04:47:08;;;;;;;6.70;5.70;;;;;;;;;;4976879;28;20082;-60
2023/01/25 04:49:33;;;;;;;6.38;5.68;;;;;;;;;;4976871;28;20027;-59
2023/01/25 04:51:59;;;;;;;8.00;6.03;;;;;;;;;;4959766;28;20035;-60
2023/01/25 04:54:25;;;;;;;6.80;5.40;;;;;;;;;;4976777;28;20023;-60
2023/01/25 04:56:50;;;;;;;8.23;5.65;;;;;;;;;;4976688;28;20023;-60
2023/01/25 04:59:16;;;;;;;6.80;5.75;;;;;;;;;;4976579;28;20061;-59
2023/01/25 05:01:41;;;;;;;7.13;5.70;;;;;;;;;;4976555;28;20112;-60
2023/01/25 05:04:07;;;;;;;6.15;5.25;;;;;;;;;;4976570;28;20019;-60
2023/01/25 05:06:32;;;;;;;8.85;5.50;;;;;;;;;;4976509;28;20027;-59
2023/01/25 05:08:58;;;;;;;6.45;5.45;;;;;;;;;;4976545;28;20034;-60
2023/01/25 05:11:23;;;;;;;7.45;5.80;;;;;;;;;;4976387;28;20025;-60
2023/01/25 05:13:50;;;;;;;8.15;5.88;;;;;;;;;;4976431;28;20055;-59
2023/01/25 05:16:16;;;;;;;5.93;5.32;;;;;;;;;;4975900;28;20051;-60
2023/01/25 05:18:42;;;;;;;6.47;5.32;;;;;;;;;;4976290;28;20053;-60
2023/01/25 05:21:56;;;;;;;6.38;5.40;;;;;;;;;;4976243;28;20027;-60
2023/01/25 05:23:52;;;;;;;7.10;5.55;;;;;;;;;;4976121;28;20027;-60
2023/01/25 05:29:02;;;;;;;7.20;5.72;;;;;;;;;;4976448;28;20161;-60
2023/01/25 05:31:28;;;;;;;8.05;5.65;;;;;;;;;;4976085;28;20483;-59
2023/01/25 05:33:53;;;;;;;7.85;5.93;;;;;;;;;;4976369;28;20526;-60
2023/01/25 05:36:19;;;;;;;7.50;6.00;;;;;;;;;;4975930;28;20027;-60
2023/01/25 05:38:44;;;;;;;7.07;5.38;;;;;;;;;;4975917;28;20026;-60
2023/01/25 05:41:10;;;;;;;7.25;5.38;;;;;;;;;;4975782;28;20027;-60
2023/01/25 05:43:35;;;;;;;6.85;5.70;;;;;;;;;;4975888;28;20031;-60
2023/01/25 05:46:01;;;;;;;6.78;5.13;;;;;;;;;;4975496;28;20031;-60
2023/01/25 05:48:26;;;;;;;6.90;5.45;;;;;;;;;;4975789;28;20109;-60
2023/01/25 05:50:55;;;;;;;8.30;6.25;;;;;;;;;;4975815;28;20470;-60
2023/01/25 05:53:25;;;;;;;6.43;5.30;;;;;;;;;;4975975;28;20035;-61
2023/01/25 05:55:51;;;;;;;7.88;5.78;;;;;;;;;;4975703;28;20022;-60
2023/01/25 05:58:17;;;;;;;6.53;5.40;;;;;;;;;;4975895;28;20042;-61
2023/01/25 06:00:42;;;;;;;7.10;5.88;;;;;;;;;;4975538;28;20454;-61
2023/01/25 06:03:08;;;;;;;7.00;5.53;;;;;;;;;;4975763;28;20030;-60
2023/01/25 06:05:34;;;;;;;7.07;5.38;;;;;;;;;;4975554;28;20502;-60
2023/01/25 06:07:59;;;;;;;6.10;5.13;;;;;;;;;;4975374;28;20027;-60
2023/01/25 06:10:25;;;;;;;6.68;5.68;;;;;;;;;;4975428;28;20467;-60
2023/01/25 06:12:56;;;;;;;6.25;5.28;;;;;;;;;;4975151;28;20033;-60
2023/01/25 06:15:22;;;;;;;7.43;6.15;;;;;;;;;;4975122;28;20042;-61
2023/01/25 06:17:47;;;;;;;6.47;5.47;;;;;;;;;;4975487;28;20492;-60
2023/01/25 06:20:13;;;;;;;6.15;5.32;;;;;;;;;;4975173;28;20501;-60
2023/01/25 06:22:38;;;;;;;6.53;5.03;;;;;;;;;;4975040;28;20518;-60
2023/01/25 06:25:05;;;;;;;6.75;5.60;;;;;;;;;;4975358;28;20023;-61
2023/01/25 06:27:30;;;;;;;6.13;5.20;;;;;;;;;;4974955;28;20030;-61
2023/01/25 06:29:56;;;;;;;6.53;5.60;;;;;;;;;;4975258;28;20105;-60
2023/01/25 06:32:23;;;;;;;7.40;5.70;;;;;;;;;;4974816;28;20650;-61
2023/01/25 06:34:49;;;;;;;6.57;5.60;;;;;;;;;;4974953;28;20031;-60
2023/01/25 06:37:14;;;;;;;5.78;5.10;;;;;;;;;;4974862;28;20058;-61
2023/01/25 06:39:40;;;;;;;7.38;5.03;;;;;;;;;;4974847;28;20030;-60
2023/01/25 06:42:05;;;;;;;7.30;5.72;;;;;;;;;;4974699;28;20019;-60
2023/01/25 06:44:31;;;;;;;6.60;5.47;;;;;;;;;;4974977;28;20118;-61
2023/01/25 06:46:56;;;;;;;7.57;5.57;;;;;;;;;;4974589;28;20062;-60
2023/01/25 06:49:22;;;;;;;7.88;5.22;;;;;;;;;;4974563;28;20026;-60
2023/01/25 06:51:47;;;;;;;6.78;5.30;;;;;;;;;;4974462;28;20057;-60
2023/01/25 06:54:13;;;;;;;7.93;5.75;;;;;;;;;;4974789;28;20030;-61
2023/01/25 06:56:38;;;;;;;7.45;5.47;;;;;;;;;;4973854;28;20364;-61
2023/01/25 06:59:04;;;;;;;7.32;5.45;;;;;;;;;;4974327;28;20488;-62
2023/01/25 07:01:30;;;;;;;7.15;5.63;;;;;;;;;;4974348;28;20026;-60
2023/01/25 07:03:58;;;;;;;7.55;5.20;;;;;;;;;;4974628;28;20046;-60
2023/01/25 07:06:25;;;;;;;8.20;5.43;;;;;;;;;;4974256;28;20356;-61
2023/01/25 07:08:51;;;;;;;7.22;5.65;;;;;;;;;;4956995;28;20089;-60
2023/01/25 07:11:17;;;;;;;9.32;5.80;;;;;;;;;;4974102;28;20034;-61
2023/01/25 07:13:44;;;;;;;7.10;5.65;;;;;;;;;;4974320;28;20407;-60
2023/01/25 07:16:16;;;;;;;9.30;5.95;;;;;;;;;;4972862;28;20084;-62
2023/01/25 07:18:42;;;;;;;7.32;5.47;;;;;;;;;;4972960;28;20038;-61
2023/01/25 07:21:10;;;;;;;7.10;5.63;;;;;;;;;;4973646;28;20042;-61
2023/01/25 07:23:37;;;;;;;7.60;5.50;;;;;;;;;;4956018;28;20041;-61
2023/01/25 07:26:03;;;;;;;8.38;5.43;;;;;;;;;;4956255;28;20031;-61
2023/01/25 07:28:30;;;;;;;7.75;5.05;;;;;;;;;;4939250;28;20395;-61
2023/01/25 07:30:56;;;;;;;7.13;5.50;;;;;;;;;;4971854;28;20033;-62
2023/01/25 07:33:22;;;;;;;7.50;5.60;;;;;;;;;;4971973;28;20030;-61
2023/01/25 07:35:49;;;;;;;7.07;5.10;;;;;;;;;;4972850;28;20027;-62
2023/01/25 07:38:15;;;;;;;8.85;5.38;;;;;;;;;;4973324;28;20030;-61
2023/01/25 07:40:41;;;;;;;7.53;5.55;;;;;;;;;;4955779;28;20418;-61
2023/01/25 07:43:07;;;;;;;7.75;5.18;;;;;;;;;;4973884;28;20034;-62
2023/01/25 07:45:32;;;;;;;8.57;5.70;;;;;;;;;;4973985;28;20038;-61
2023/01/25 07:47:59;;;;;;;8.02;5.47;;;;;;;;;;4973973;28;20482;-60
2023/01/25 07:50:26;;;;;;;7.07;5.13;;;;;;;;;;4973632;28;20026;-60
2023/01/25 07:52:52;;;;;;;8.65;5.68;;;;;;;;;;4956260;28;20490;-60
2023/01/25 07:55:18;;;;;;;6.82;5.30;;;;;;;;;;4973522;28;20038;-60
2023/01/25 07:57:43;;;;;;;7.07;5.22;;;;;;;;;;4956726;28;20027;-61
2023/01/25 08:00:09;;;;;;;6.97;5.47;;;;;;;;;;4973413;28;20398;-61
2023/01/25 08:02:35;;;;;;;8.07;5.40;;;;;;;;;;4956257;28;20044;-61
2023/01/25 08:05:01;;;;;;;6.10;5.07;;;;;;;;;;4973492;28;20023;-60
2023/01/25 08:07:28;;;;;;;6.75;5.22;;;;;;;;;;4973863;28;20114;-61
2023/01/25 08:09:54;;;;;;;8.07;5.38;;;;;;;;;;4977392;28;20054;-62
2023/01/25 08:12:19;;;;;;;8.57;5.75;;;;;;;;;;4977529;28;20434;-62
2023/01/25 08:14:45;;;;;;;9.10;5.43;;;;;;;;;;4977414;28;20093;-60
2023/01/25 08:17:10;;;;;;;8.30;5.40;;;;;;;;;;4977178;28;20050;-60
2023/01/25 08:19:36;;;;;;;6.97;5.22;;;;;;;;;;4977236;28;20064;-61
2023/01/25 08:22:01;;;;;;;7.75;5.40;;;;;;;;;;4977280;28;20420;-61
2023/01/25 08:24:27;;;;;;;7.47;5.25;;;;;;;;;;4977153;28;20022;-60
2023/01/25 08:26:53;;;;;;;7.10;5.28;;;;;;;;;;4977535;28;20019;-60
2023/01/25 08:29:18;;;;;;;7.18;5.45;;;;;;;;;;4977073;28;20491;-60
2023/01/25 08:31:44;;;;;;;7.15;5.38;;;;;;;;;;4977379;28;20114;-61
2023/01/25 08:34:10;;;;;;;6.80;5.28;;;;;;;;;;4977108;28;20118;-60
2023/01/25 08:36:36;;;;;;;6.22;5.00;;;;;;;;;;4977085;28;20110;-60
2023/01/25 08:39:04;;;;;;;8.05;5.32;;;;;;;;;;4976792;28;20465;-60
2023/01/25 08:41:32;;;;;;;7.30;5.32;;;;;;;;;;4977002;28;20023;-60
2023/01/25 08:43:58;;;;;;;6.78;4.95;;;;;;;;;;4976905;28;20031;-61
2023/01/25 08:46:25;;;;;;;7.07;5.25;;;;;;;;;;4976865;28;20030;-60
2023/01/25 08:48:55;;;;;;;6.43;4.75;;;;;;;;;;4976830;28;20023;-60
2023/01/25 08:51:21;;;;;;;7.20;5.20;;;;;;;;;;4976800;28;20073;-60
2023/01/25 08:53:47;;;;;;;7.25;5.20;;;;;;;;;;4976581;28;20039;-60
2023/01/25 08:56:14;;;;;;;6.75;5.10;;;;;;;;;;4976616;28;20027;-60
2023/01/25 08:58:43;;;;;;;6.32;5.13;;;;;;;;;;4976607;28;20019;-60
2023/01/25 09:01:11;;;;;;;9.23;5.47;;;;;;;;;;4976628;28;20387;-60
2023/01/25 09:03:43;;;;;;;6.35;5.20;;;;;;;;;;4959193;28;20034;-60
2023/01/25 09:06:09;;;;;;;7.22;5.35;;;;;;;;;;4976557;28;20471;-61
2023/01/25 09:08:36;;;;;;;6.82;5.25;;;;;;;;;;4976435;28;20035;-62
2023/01/25 09:11:07;;;;;;;6.18;4.75;;;;;;;;;;4976396;28;20038;-60
2023/01/25 09:13:33;;;;;;;7.40;5.47;;;;;;;;;;4984690;28;20085;-61
2023/01/25 09:16:06;;;;;;;6.55;4.95;;;;;;;;;;4989003;28;20905;-61
2023/01/25 09:18:34;;;;;;;7.13;5.20;;;;;;;;;;4993498;28;20120;-61
2023/01/25 09:21:09;;;;;;;6.90;5.10;;;;;;;;;;4977482;28;20042;-60
2023/01/25 09:23:35;;;;;;;6.70;5.30;;;;;;;;;;4995680;28;20479;-60
2023/01/25 09:26:01;;;;;;;6.20;5.07;;;;;;;;;;4995568;28;20061;-61
2023/01/25 09:28:31;;;;;;;7.50;5.18;;;;;;;;;;4995760;28;20033;-60
2023/01/25 09:31:02;;;;;;;7.03;5.47;;;;;;;;;;4995502;28;20029;-60
2023/01/25 09:33:32;;;;;;;6.85;5.45;;;;;;;;;;4976026;28;20433;-61
2023/01/25 09:35:58;;;;;;;8.07;5.50;;;;;;;;;;4995246;28;20373;-62
2023/01/25 09:38:24;;;;;;;6.70;5.15;;;;;;;;;;4994873;28;20019;-62
2023/01/25 09:41:08;;;;;;;6.97;5.20;;;;;;;;;;4988481;28;20061;-61
2023/01/25 09:43:45;;;;;;;6.82;5.30;;;;;;;;;;4975784;28;20085;-61
2023/01/25 09:46:36;;;;;;;7.28;4.82;;;;;;;;;;4975766;28;20031;-61
2023/01/25 09:49:39;;;;;;;8.32;5.70;;;;;;;;;;4972562;28;20046;-60
2023/01/25 09:52:39;;;;;;;8.27;5.43;;;;;;;;;;4982986;28;20026;-61
2023/01/25 09:55:17;;;;;;;5.88;4.93;;;;;;;;;;4987362;28;20034;-64
2023/01/25 09:57:45;;;;;;;7.40;5.32;;;;;;;;;;4947703;28;20053;-62
2023/01/25 10:00:28;;;;;;;7.30;5.32;;;;;;;;;;4983742;28;20113;-61
2023/01/25 10:03:02;;;;;;;6.05;4.80;;;;;;;;;;4970384;28;20026;-61
2023/01/25 10:05:35;;;;;;;7.18;5.40;;;;;;;;;;4984728;28;20029;-61
2023/01/25 10:08:30;;;;;;;8.02;5.70;;;;;;;;;;4985135;28;20022;-61
2023/01/25 10:11:07;;;;;;;7.55;5.53;;;;;;;;;;4983496;28;20034;-61
2023/01/25 10:13:32;;;;;;;7.70;5.15;;;;;;;;;;4984940;28;20490;-61
2023/01/25 10:16:01;;;;;;;9.13;5.63;;;;;;;;;;4984932;28;20050;-61
2023/01/25 10:18:50;;;;;;;6.72;5.40;;;;;;;;;;4982385;28;20019;-62
2023/01/25 10:21:25;;;;;;;7.32;5.22;;;;;;;;;;4987082;28;20042;-63
2023/01/25 10:24:26;;;;;;;6.90;5.45;;;;;;;;;;4979890;28;20034;-61
2023/01/25 10:26:59;;;;;;;8.10;5.60;;;;;;;;;;4982798;28;20030;-61
2023/01/25 10:29:32;;;;;;;9.55;5.70;;;;;;;;;;4992214;28;20526;-60
2023/01/25 10:32:23;;;;;;;8.00;5.50;;;;;;;;;;4991746;28;20038;-61
2023/01/25 10:34:50;;;;;;;8.32;4.95;;;;;;;;;;4971556;28;20487;-61
2023/01/25 10:37:17;;;;;;;14.43;5.82;;;;;;;;;;4994165;28;20076;-61
2023/01/25 10:40:04;;;;;;;7.03;5.18;;;;;;;;;;4993990;28;20120;-61
2023/01/25 10:42:37;;;;;;;8.45;5.65;;;;;;;;;;4990744;28;20082;-62
2023/01/25 10:45:10;;;;;;;6.72;5.03;;;;;;;;;;4965568;28;20486;-62
2023/01/25 10:47:40;;;;;;;6.72;5.00;;;;;;;;;;4983905;28;20038;-61
2023/01/25 10:50:07;;;;;;;7.15;4.93;;;;;;;;;;4982207;28;20046;-61
2023/01/25 10:52:36;;;;;;;7.78;5.30;;;;;;;;;;4981539;28;20038;-61
2023/01/25 10:55:25;;;;;;;9.27;5.20;;;;;;;;;;4957076;28;20494;-61
2023/01/25 10:57:58;;;;;;;8.40;5.30;;;;;;;;;;4974445;28;20101;-61
2023/01/25 11:00:26;;;;;;;7.35;4.95;;;;;;;;;;4974698;28;20030;-61
2023/01/25 11:02:53;;;;;;;8.98;5.00;;;;;;;;;;4974334;28;20027;-62
2023/01/25 11:05:18;;;;;;;7.97;5.43;;;;;;;;;;4978326;28;20475;-62
2023/01/25 11:07:47;;;;;;;6.55;5.30;;;;;;;;;;4986792;28;20042;-62
2023/01/25 11:10:33;;;;;;;7.05;5.00;;;;;;;;;;4991211;28;20033;-62
2023/01/25 11:13:18;;;;;;;6.85;4.97;;;;;;;;;;4993619;28;20022;-62
2023/01/25 11:15:51;;;;;;;7.68;5.18;;;;;;;;;;4993260;28;20394;-61
2023/01/25 11:18:28;;;;;;;6.15;4.80;;;;;;;;;;4993387;28;20031;-61
2023/01/25 11:21:10;;;;;;;7.30;5.35;;;;;;;;;;4993397;28;20037;-61
2023/01/25 11:23:36;;;;;;;9.13;5.30;;;;;;;;;;4993190;28;20034;-62
2023/01/25 11:26:15;;;;;;;7.22;5.10;;;;;;;;;;4993306;28;20429;-62
2023/01/25 11:28:41;;;;;;;7.10;4.95;;;;;;;;;;4993186;28;20026;-61
2023/01/25 11:31:11;;;;;;;9.32;5.10;;;;;;;;;;4975700;28;20037;-62
2023/01/25 11:33:37;;;;;;;6.43;4.95;;;;;;;;;;4993438;28;20029;-62
2023/01/25 11:36:32;;;;;;;8.27;5.05;;;;;;;;;;4993046;28;20030;-63
2023/01/25 11:39:17;;;;;;;12.30;5.07;;;;;;;;;;4992615;28;20037;-63
2023/01/25 11:42:13;;;;;;;7.25;4.95;;;;;;;;;;4985631;28;20034;-62
2023/01/25 11:44:58;;;;;;;6.82;5.15;;;;;;;;;;4987942;28;20387;-62
2023/01/25 11:48:05;;;;;;;5.63;4.97;;;;;;;;;;4993165;28;20030;-61
2023/01/25 11:50:37;;;;;;;5.13;4.45;;;;;;;;;;4993064;28;20060;-62
2023/01/25 11:53:40;;;;;;;8.25;5.50;;;;;;;;;;4993181;28;20370;-62
2023/01/25 11:56:47;;;;;;;7.97;5.13;;;;;;;;;;4975617;28;20030;-61
2023/01/25 11:59:31;;;;;;;9.07;5.22;;;;;;;;;;4979957;28;20490;-62
2023/01/25 12:02:26;;;;;;;6.45;5.00;;;;;;;;;;4992526;28;20038;-63
2023/01/25 12:05:20;;;;;;;7.30;4.95;;;;;;;;;;4982668;28;20058;-63
2023/01/25 12:08:04;;;;;;;8.70;4.70;;;;;;;;;;4981770;28;20027;-62
2023/01/25 12:10:54;;;;;;;9.20;5.25;;;;;;;;;;4987990;28;20479;-62
2023/01/25 12:13:39;;;;;;;;;;;;;;;;;;4993361;28;20426;-62
2023/01/25 12:16:18;;;;;;;7.57;5.35;;;;;;;;;;4992847;28;19976;-62
2023/01/25 12:19:02;;;;;;;7.10;4.82;;;;;;;;;;4983475;28;20027;-63
2023/01/25 12:21:41;;;;;;;6.30;5.00;;;;;;;;;;4973323;28;20382;-62
2023/01/25 12:24:32;;;;;;;6.72;5.13;;;;;;;;;;4973554;28;20026;-62
2023/01/25 12:27:19;;;;;;;8.18;5.15;;;;;;;;;;4973477;28;20031;-62
2023/01/25 12:29:59;;;;;;;7.03;5.10;;;;;;;;;;4983533;28;20487;-61
2023/01/25 12:32:48;;;;;;;6.78;5.00;;;;;;;;;;4958494;28;20383;-62
2023/01/25 12:35:49;;;;;;;7.35;5.20;;;;;;;;;;4973442;28;20097;-64
2023/01/25 12:38:24;;;;;;;5.82;4.80;;;;;;;;;;4934654;28;20078;-62
2023/01/25 12:40:55;;;;;;;6.45;4.97;;;;;;;;;;4982593;28;20022;-63
2023/01/25 12:43:45;;;;;;;7.43;4.80;;;;;;;;;;4988411;28;20023;-64
2023/01/25 12:46:26;;;;;;;5.75;4.88;;;;;;;;;;4990065;28;20042;-62
2023/01/25 12:48:53;;;;;;;;;;;;;;;;;;4991959;28;20439;-62
2023/01/25 12:51:21;;;;;;;8.00;5.00;;;;;;;;;;4991152;28;19917;-62
2023/01/25 12:53:48;;;;;;;8.35;5.32;;;;;;;;;;4991626;28;20026;-62
2023/01/25 12:56:23;;;;;;;7.40;4.85;;;;;;;;;;4995147;28;20022;-62
2023/01/25 12:58:55;;;;;;;6.32;4.78;;;;;;;;;;4996010;28;20110;-63
2023/01/25 13:01:36;;;;;;;7.38;5.28;;;;;;;;;;4996084;28;20026;-62
2023/01/25 13:04:20;;;;;;;7.43;4.63;;;;;;;;;;4996104;28;20022;-62
2023/01/25 13:06:49;;;;;;;8.43;5.22;;;;;;;;;;4978614;28;20509;-61
2023/01/25 13:09:38;;;;;;;8.43;5.13;;;;;;;;;;4995934;28;20037;-61
2023/01/25 13:12:04;;;;;;;8.80;5.45;;;;;;;;;;4995979;28;20783;-61
2023/01/25 13:14:38;;;;;;;6.72;4.72;;;;;;;;;;4996178;28;20378;-62
2023/01/25 13:17:22;;;;;;;6.40;4.90;;;;;;;;;;4995628;28;20082;-61
2023/01/25 13:19:49;;;;;;;5.63;4.55;;;;;;;;;;4995896;28;20030;-61
2023/01/25 13:22:44;;;;;;;6.43;4.80;;;;;;;;;;4995364;28;20085;-61
2023/01/25 13:25:15;;;;;;;7.13;5.18;;;;;;;;;;4995478;28;20494;-61
2023/01/25 13:27:41;;;;;;;6.00;4.80;;;;;;;;;;4995601;28;20034;-62
2023/01/25 13:30:28;;;;;;;6.90;4.90;;;;;;;;;;4995546;28;20027;-63
2023/01/25 13:32:57;;;;;;;8.15;5.22;;;;;;;;;;4995448;28;20073;-62
2023/01/25 13:35:31;;;;;;;6.82;4.65;;;;;;;;;;4995621;28;20106;-63
2023/01/25 13:38:31;;;;;;;7.30;4.80;;;;;;;;;;4995617;28;20033;-62
2023/01/25 13:41:13;;;;;;;6.78;4.47;;;;;;;;;;4977626;28;20042;-61
2023/01/25 13:43:40;;;;;;;9.20;5.10;;;;;;;;;;4995370;28;20386;-62
2023/01/25 13:46:11;;;;;;;6.72;4.90;;;;;;;;;;4995278;28;20022;-62
2023/01/25 13:48:56;;;;;;;6.75;4.78;;;;;;;;;;4995254;28;20066;-62
2023/01/25 13:51:22;;;;;;;6.40;4.80;;;;;;;;;;4995444;28;20030;-62
2023/01/25 13:53:56;;;;;;;8.93;5.93;;;;;;;;;;4995245;28;20540;-62
2023/01/25 13:56:29;;;;;;;5.93;4.57;;;;;;;;;;4995099;28;20081;-62
2023/01/25 13:58:54;;;;;;;8.48;4.82;;;;;;;;;;4995038;28;20029;-62
2023/01/25 14:01:22;;;;;;;8.30;5.30;;;;;;;;;;4977493;28;20121;-62
2023/01/25 14:04:01;;;;;;;6.13;4.65;;;;;;;;;;4994996;28;20038;-62
2023/01/25 14:06:33;;;;;;;5.75;4.65;;;;;;;;;;4994480;28;20030;-62
2023/01/25 14:09:09;;;;;;;7.32;4.82;;;;;;;;;;4994965;28;20466;-62
2023/01/25 14:11:41;;;;;;;7.63;4.80;;;;;;;;;;4994845;28;20041;-62
2023/01/25 14:14:27;;;;;;;6.95;4.97;;;;;;;;;;4977231;28;20026;-63
2023/01/25 14:17:25;;;;;;;6.40;4.72;;;;;;;;;;4994986;28;20496;-62
2023/01/25 14:19:54;;;;;;;7.93;4.93;;;;;;;;;;4924828;28;20367;-62
2023/01/25 14:22:20;;;;;;;8.00;5.23;;;;;;;;;;4977147;28;20029;-63
2023/01/25 14:25:08;;;;;;;6.53;4.88;;;;;;;;;;4994634;28;20030;-62
2023/01/25 14:27:36;;;;;;;7.00;4.70;;;;;;;;;;4994506;28;20479;-62
2023/01/25 14:30:03;;;;;;;7.80;5.57;;;;;;;;;;4994799;28;20387;-62
2023/01/25 14:32:29;;;;;;;6.50;5.18;;;;;;;;;;4994405;28;20497;-62
2023/01/25 14:34:55;;;;;;;6.57;4.88;;;;;;;;;;4994365;28;20022;-61
2023/01/25 14:37:21;;;;;;;7.13;5.25;;;;;;;;;;4994327;28;20026;-62
2023/01/25 14:39:49;;;;;;;5.63;4.55;;;;;;;;;;4994301;28;20034;-62
2023/01/25 14:42:16;;;;;;;6.95;5.05;;;;;;;;;;4992997;28;20550;-61
2023/01/25 14:44:42;;;;;;;5.95;4.80;;;;;;;;;;4992951;28;20655;-61
2023/01/25 14:47:30;;;;;;;8.35;5.30;;;;;;;;;;4992729;28;20054;-61
2023/01/25 14:50:28;;;;;;;8.30;5.30;;;;;;;;;;4975095;28;20077;-61
2023/01/25 14:52:54;;;;;;;5.75;4.55;;;;;;;;;;4992621;28;20036;-61
2023/01/25 14:55:20;;;;;;;8.07;4.80;;;;;;;;;;4992539;28;20474;-61
2023/01/25 14:57:48;;;;;;;6.78;5.18;;;;;;;;;;4992431;28;20034;-62
2023/01/25 15:00:23;;;;;;;7.20;4.93;;;;;;;;;;4992631;28;20042;-61
2023/01/25 15:02:53;;;;;;;7.07;4.95;;;;;;;;;;4992272;28;20027;-62
2023/01/25 15:05:26;;;;;;;6.57;4.93;;;;;;;;;;4992358;28;20096;-61
2023/01/25 15:07:57;;;;;;;7.28;4.80;;;;;;;;;;4992427;28;20120;-61
2023/01/25 15:10:28;;;;;;;6.68;4.80;;;;;;;;;;4992354;28;20038;-61